Řízení letového provozu České republiky
Letiste: LKCV Aktualizace: 20.01.2019 10:01:06  UTC
 METAR LKCV 20.01. 10:00 ...
METAR LKCV 201000Z VRB01KT 9999 BKN027 M02/M05 Q1016 NOSIG RMK BLU BLU=
 TAF LKCV 20.01. 05:00 ...
TAF LKCV 200500Z 2006/2106 VRB02KT 9999 OVC030      TEMPO 2006/2010 4000 BR OVC012      PROB30 TEMPO 2006/2010 2500 -SN BR OVC005      BECMG 2016/2019 CAVOK      TEMPO 2100/2106 2000 MIFG BR BKN012=